sensor_id;sensor_type;location;lat;lon;timestamp;pressure;altitude;pressure_sealevel;temperature;humidity
64204;BME280;50520;49.768;8.636;2022-08-24T00:01:19;100521.41;;;23.12;51.94
64204;BME280;50520;49.768;8.636;2022-08-24T00:03:46;100530.38;;;23.11;52.01
64204;BME280;50520;49.768;8.636;2022-08-24T00:06:15;100531.22;;;23.12;52.02
64204;BME280;50520;49.768;8.636;2022-08-24T00:08:44;100524.91;;;23.13;51.80
64204;BME280;50520;49.768;8.636;2022-08-24T00:11:11;100518.91;;;23.11;51.78
64204;BME280;50520;49.768;8.636;2022-08-24T00:13:38;100525.06;;;23.11;51.98
64204;BME280;50520;49.768;8.636;2022-08-24T00:16:05;100525.06;;;23.11;52.07
64204;BME280;50520;49.768;8.636;2022-08-24T00:18:34;100533.06;;;23.11;51.79
64204;BME280;50520;49.768;8.636;2022-08-24T00:21:02;100527.72;;;23.11;52.08
64204;BME280;50520;49.768;8.636;2022-08-24T00:23:30;100527.06;;;23.09;52.00
64204;BME280;50520;49.768;8.636;2022-08-24T00:25:57;100516.38;;;23.09;52.11
64204;BME280;50520;49.768;8.636;2022-08-24T00:28:24;100526.91;;;23.11;52.02
64204;BME280;50520;49.768;8.636;2022-08-24T00:30:51;100521.56;;;23.11;52.07
64204;BME280;50520;49.768;8.636;2022-08-24T00:33:19;100524.38;;;23.09;52.20
64204;BME280;50520;49.768;8.636;2022-08-24T00:35:46;100529.72;;;23.09;51.88
64204;BME280;50520;49.768;8.636;2022-08-24T00:38:13;100525.25;;;23.10;51.97
64204;BME280;50520;49.768;8.636;2022-08-24T00:40:41;100527.91;;;23.10;52.15
64204;BME280;50520;49.768;8.636;2022-08-24T00:43:11;100521.72;;;23.09;52.11
64204;BME280;50520;49.768;8.636;2022-08-24T00:45:40;100522.56;;;23.10;51.91
64204;BME280;50520;49.768;8.636;2022-08-24T00:48:12;100524.38;;;23.09;51.93
64204;BME280;50520;49.768;8.636;2022-08-24T00:50:45;100527.06;;;23.09;52.12
64204;BME280;50520;49.768;8.636;2022-08-24T00:53:17;100523.56;;;23.09;52.15
64204;BME280;50520;49.768;8.636;2022-08-24T00:55:47;100520.09;;;23.08;52.09
64204;BME280;50520;49.768;8.636;2022-08-24T00:58:17;100522.75;;;23.08;52.22
64204;BME280;50520;49.768;8.636;2022-08-24T01:00:47;100526.25;;;23.09;52.21
64204;BME280;50520;49.768;8.636;2022-08-24T01:03:16;100528.09;;;23.08;52.07
64204;BME280;50520;49.768;8.636;2022-08-24T01:05:43;100529.28;;;23.06;52.18
64204;BME280;50520;49.768;8.636;2022-08-24T01:08:10;100530.75;;;23.08;52.16
64204;BME280;50520;49.768;8.636;2022-08-24T01:10:40;100530.94;;;23.07;52.07
64204;BME280;50520;49.768;8.636;2022-08-24T01:13:09;100533.41;;;23.08;52.19
64204;BME280;50520;49.768;8.636;2022-08-24T01:15:37;100531.75;;;23.07;51.92
64204;BME280;50520;49.768;8.636;2022-08-24T01:18:07;100529.09;;;23.07;51.95
64204;BME280;50520;49.768;8.636;2022-08-24T01:20:59;100526.44;;;23.07;52.10
64204;BME280;50520;49.768;8.636;2022-08-24T01:25:57;100526.44;;;23.07;52.13
64204;BME280;50520;49.768;8.636;2022-08-24T01:28:24;100529.28;;;23.06;52.09
64204;BME280;50520;49.768;8.636;2022-08-24T01:30:51;100524.13;;;23.04;52.11
64204;BME280;50520;49.768;8.636;2022-08-24T01:33:24;100529.28;;;23.06;51.85
64204;BME280;50520;49.768;8.636;2022-08-24T01:35:56;100529.28;;;23.06;51.99
64204;BME280;50520;49.768;8.636;2022-08-24T01:38:25;100530.09;;;23.06;52.03
64204;BME280;50520;49.768;8.636;2022-08-24T01:40:54;100523.28;;;23.04;52.05
64204;BME280;50520;49.768;8.636;2022-08-24T01:43:24;100535.63;;;23.05;51.89
64204;BME280;50520;49.768;8.636;2022-08-24T01:45:51;100531.94;;;23.06;52.05
64204;BME280;50520;49.768;8.636;2022-08-24T01:48:19;100532.94;;;23.05;52.24
64204;BME280;50520;49.768;8.636;2022-08-24T01:50:48;100539.13;;;23.05;51.85
64204;BME280;50520;49.768;8.636;2022-08-24T01:53:15;100539.13;;;23.05;51.90
64204;BME280;50520;49.768;8.636;2022-08-24T01:55:43;100535.63;;;23.05;52.08
64204;BME280;50520;49.768;8.636;2022-08-24T01:58:10;100544.47;;;23.05;52.18
64204;BME280;50520;49.768;8.636;2022-08-24T02:00:46;100537.47;;;23.04;51.94
64204;BME280;50520;49.768;8.636;2022-08-24T02:03:15;100534.78;;;23.04;52.19
64204;BME280;50520;49.768;8.636;2022-08-24T02:05:42;100549.78;;;23.05;51.99
64204;BME280;50520;49.768;8.636;2022-08-24T02:08:11;100545.47;;;23.04;52.12
64204;BME280;50520;49.768;8.636;2022-08-24T02:10:38;100542.78;;;23.04;52.01
64204;BME280;50520;49.768;8.636;2022-08-24T02:13:07;100547.28;;;23.04;52.21
64204;BME280;50520;49.768;8.636;2022-08-24T02:15:36;100549.94;;;23.04;51.91
64204;BME280;50520;49.768;8.636;2022-08-24T02:18:06;100547.28;;;23.04;52.09
64204;BME280;50520;49.768;8.636;2022-08-24T02:20:33;100547.28;;;23.04;52.09
64204;BME280;50520;49.768;8.636;2022-08-24T02:23:01;100547.47;;;23.02;52.07
64204;BME280;50520;49.768;8.636;2022-08-24T02:25:28;100546.47;;;23.03;52.00
64204;BME280;50520;49.768;8.636;2022-08-24T02:27:56;100555.28;;;23.04;52.25
64204;BME280;50520;49.768;8.636;2022-08-24T02:30:25;100550.97;;;23.03;52.13
64204;BME280;50520;49.768;8.636;2022-08-24T02:32:52;100542.97;;;23.03;51.96
64204;BME280;50520;49.768;8.636;2022-08-24T02:35:19;100545.66;;;23.03;51.96
64204;BME280;50520;49.768;8.636;2022-08-24T02:37:48;100542.97;;;23.03;51.78
64204;BME280;50520;49.768;8.636;2022-08-24T02:40:15;100541.13;;;23.03;51.90
64204;BME280;50520;49.768;8.636;2022-08-24T02:42:43;100543.16;;;23.01;52.06
64204;BME280;50520;49.768;8.636;2022-08-24T02:45:10;100548.50;;;23.01;52.05
64204;BME280;50520;49.768;8.636;2022-08-24T02:47:37;100550.13;;;23.02;51.47
64204;BME280;50520;49.768;8.636;2022-08-24T02:50:04;100543.97;;;23.02;52.17
64204;BME280;50520;49.768;8.636;2022-08-24T02:52:31;100554.66;;;23.02;51.97
64204;BME280;50520;49.768;8.636;2022-08-24T02:54:59;100549.31;;;23.02;52.10
64204;BME280;50520;49.768;8.636;2022-08-24T02:57:27;100555.47;;;23.02;51.97
64204;BME280;50520;49.768;8.636;2022-08-24T02:59:54;100550.31;;;23.01;52.10
64204;BME280;50520;49.768;8.636;2022-08-24T03:02:22;100555.66;;;23.01;51.90
64204;BME280;50520;49.768;8.636;2022-08-24T03:04:49;100557.50;;;23.00;52.19
64204;BME280;50520;49.768;8.636;2022-08-24T03:07:16;100561.97;;;23.00;51.90
64204;BME280;50520;49.768;8.636;2022-08-24T03:09:44;100563.66;;;23.01;52.22
64204;BME280;50520;49.768;8.636;2022-08-24T03:12:12;100555.84;;;22.99;52.22
64204;BME280;50520;49.768;8.636;2022-08-24T03:14:39;100559.31;;;23.00;52.32
64204;BME280;50520;49.768;8.636;2022-08-24T03:17:07;100560.34;;;22.99;52.13
64204;BME280;50520;49.768;8.636;2022-08-24T03:19:35;100550.88;;;22.96;52.13
64204;BME280;50520;49.768;8.636;2022-08-24T03:22:03;100558.69;;;22.98;52.11
64204;BME280;50520;49.768;8.636;2022-08-24T03:24:30;100552.53;;;22.97;52.13
64204;BME280;50520;49.768;8.636;2022-08-24T03:26:58;100552.53;;;22.97;52.08
64204;BME280;50520;49.768;8.636;2022-08-24T03:29:25;100556.03;;;22.98;52.17
64204;BME280;50520;49.768;8.636;2022-08-24T03:31:53;100547.34;;;22.95;52.32
64204;BME280;50520;49.768;8.636;2022-08-24T03:34:22;100554.34;;;22.96;52.43
64204;BME280;50520;49.768;8.636;2022-08-24T03:36:49;100556.19;;;22.96;52.40
64204;BME280;50520;49.768;8.636;2022-08-24T03:39:17;100548.22;;;22.96;52.57
64204;BME280;50520;49.768;8.636;2022-08-24T03:41:46;100552.53;;;22.97;52.04
64204;BME280;50520;49.768;8.636;2022-08-24T03:44:15;100551.69;;;22.96;52.24
64204;BME280;50520;49.768;8.636;2022-08-24T03:46:43;100552.53;;;22.97;52.22
64204;BME280;50520;49.768;8.636;2022-08-24T03:49:11;100555.19;;;22.97;52.26
64204;BME280;50520;49.768;8.636;2022-08-24T03:51:40;100550.19;;;22.94;52.50
64204;BME280;50520;49.768;8.636;2022-08-24T03:54:10;100551.25;;;22.93;52.23
64204;BME280;50520;49.768;8.636;2022-08-24T03:56:39;100553.91;;;22.93;52.52
64204;BME280;50520;49.768;8.636;2022-08-24T03:59:08;100553.06;;;22.92;52.52
64204;BME280;50520;49.768;8.636;2022-08-24T04:01:37;100556.56;;;22.93;52.51
64204;BME280;50520;49.768;8.636;2022-08-24T04:04:07;100553.06;;;22.92;52.47
64204;BME280;50520;49.768;8.636;2022-08-24T04:06:38;100555.53;;;22.94;52.35
64204;BME280;50520;49.768;8.636;2022-08-24T04:09:10;100553.06;;;22.92;52.60
64204;BME280;50520;49.768;8.636;2022-08-24T04:11:39;100552.25;;;22.92;52.24
64204;BME280;50520;49.768;8.636;2022-08-24T04:14:17;100561.06;;;22.92;52.54
64204;BME280;50520;49.768;8.636;2022-08-24T04:16:48;100554.72;;;22.93;52.37
64204;BME280;50520;49.768;8.636;2022-08-24T04:19:15;100562.91;;;22.92;52.27
64204;BME280;50520;49.768;8.636;2022-08-24T04:21:44;100552.25;;;22.92;52.31
64204;BME280;50520;49.768;8.636;2022-08-24T04:24:12;100561.06;;;22.92;52.36
64204;BME280;50520;49.768;8.636;2022-08-24T04:26:41;100563.09;;;22.90;52.37
64204;BME280;50520;49.768;8.636;2022-08-24T04:29:27;100562.06;;;22.91;52.55
64204;BME280;50520;49.768;8.636;2022-08-24T04:31:53;100557.75;;;22.90;52.36
64204;BME280;50520;49.768;8.636;2022-08-24T04:34:21;100559.56;;;22.90;52.45
64204;BME280;50520;49.768;8.636;2022-08-24T04:36:49;100560.59;;;22.89;52.38
64204;BME280;50520;49.768;8.636;2022-08-24T04:39:38;100574.94;;;22.41;47.10
64204;BME280;50520;49.768;8.636;2022-08-24T04:42:08;100564.72;;;21.34;46.67
64204;BME280;50520;49.768;8.636;2022-08-24T04:44:39;100575.72;;;21.06;47.06
64204;BME280;50520;49.768;8.636;2022-08-24T04:47:24;100574.41;;;20.94;47.24
64204;BME280;50520;49.768;8.636;2022-08-24T04:49:53;100578.03;;;20.85;47.48
64204;BME280;50520;49.768;8.636;2022-08-24T04:52:21;100585.97;;;20.60;47.81
64204;BME280;50520;49.768;8.636;2022-08-24T04:54:49;100587.94;;;20.41;49.02
64204;BME280;50520;49.768;8.636;2022-08-24T04:57:15;100586.44;;;20.39;49.60
64204;BME280;50520;49.768;8.636;2022-08-24T04:59:42;100582.97;;;20.38;50.02
64204;BME280;50520;49.768;8.636;2022-08-24T05:02:09;100590.91;;;20.30;50.20
64204;BME280;50520;49.768;8.636;2022-08-24T05:04:36;100591.38;;;20.25;50.29
64204;BME280;50520;49.768;8.636;2022-08-24T05:07:02;100595.38;;;20.30;49.80
64204;BME280;50520;49.768;8.636;2022-08-24T05:09:29;100589.75;;;20.24;49.64
64204;BME280;50520;49.768;8.636;2022-08-24T05:11:56;100599.84;;;20.29;49.45
64204;BME280;50520;49.768;8.636;2022-08-24T05:14:23;100602.84;;;20.26;49.67
64204;BME280;50520;49.768;8.636;2022-08-24T05:16:49;100599.34;;;20.25;49.73
64204;BME280;50520;49.768;8.636;2022-08-24T05:19:17;100596.84;;;20.24;50.00
64204;BME280;50520;49.768;8.636;2022-08-24T05:21:43;100595.03;;;20.16;50.16
64204;BME280;50520;49.768;8.636;2022-08-24T05:24:10;100599.66;;;20.22;50.30
64204;BME280;50520;49.768;8.636;2022-08-24T05:26:37;100605.16;;;20.29;50.34
64204;BME280;50520;49.768;8.636;2022-08-24T05:29:04;100607.31;;;20.17;50.53
64204;BME280;50520;49.768;8.636;2022-08-24T05:31:31;100610.13;;;20.24;50.49
64204;BME280;50520;49.768;8.636;2022-08-24T05:33:59;100607.59;;;20.14;51.11
64204;BME280;50520;49.768;8.636;2022-08-24T05:36:27;100612.44;;;20.19;50.86
64204;BME280;50520;49.768;8.636;2022-08-24T05:38:55;100607.31;;;20.25;50.95
64204;BME280;50520;49.768;8.636;2022-08-24T05:41:22;100607.81;;;20.29;51.23
64204;BME280;50520;49.768;8.636;2022-08-24T05:43:50;100614.16;;;20.36;51.33
64204;BME280;50520;49.768;8.636;2022-08-24T05:46:17;100618.13;;;20.40;51.30
64204;BME280;50520;49.768;8.636;2022-08-24T05:48:43;100614.44;;;21.01;51.08
64204;BME280;50520;49.768;8.636;2022-08-24T05:51:10;100619.03;;;21.48;50.26
64204;BME280;50520;49.768;8.636;2022-08-24T05:53:38;100614.03;;;21.70;49.37
64204;BME280;50520;49.768;8.636;2022-08-24T05:56:06;100614.66;;;21.80;49.36
64204;BME280;50520;49.768;8.636;2022-08-24T05:58:33;100619.78;;;21.90;49.46
64204;BME280;50520;49.768;8.636;2022-08-24T06:01:04;100624.25;;;21.98;49.06
64204;BME280;50520;49.768;8.636;2022-08-24T06:03:32;100622.72;;;22.03;49.18
64204;BME280;50520;49.768;8.636;2022-08-24T06:05:58;100624.84;;;22.08;49.22
64204;BME280;50520;49.768;8.636;2022-08-24T06:08:27;100631.66;;;22.10;48.93
64204;BME280;50520;49.768;8.636;2022-08-24T06:10:58;100627.03;;;22.13;49.15
64204;BME280;50520;49.768;8.636;2022-08-24T06:13:32;100637.31;;;22.16;49.06
64204;BME280;50520;49.768;8.636;2022-08-24T06:16:07;100633.31;;;22.20;48.97
64204;BME280;50520;49.768;8.636;2022-08-24T06:18:35;100629.47;;;22.22;49.01
64204;BME280;50520;49.768;8.636;2022-08-24T06:21:03;100629.75;;;22.27;49.05
64204;BME280;50520;49.768;8.636;2022-08-24T06:23:30;100635.75;;;22.30;48.93
64204;BME280;50520;49.768;8.636;2022-08-24T06:25:57;100638.22;;;22.31;49.15
64204;BME280;50520;49.768;8.636;2022-08-24T06:28:44;100641.53;;;22.33;49.13
64204;BME280;50520;49.768;8.636;2022-08-24T06:31:10;100633.53;;;22.33;49.18
64204;BME280;50520;49.768;8.636;2022-08-24T06:33:37;100629.09;;;22.34;48.92
64204;BME280;50520;49.768;8.636;2022-08-24T06:36:05;100636.91;;;22.35;49.32
64204;BME280;50520;49.768;8.636;2022-08-24T06:38:34;100641.06;;;22.38;49.30
64204;BME280;50520;49.768;8.636;2022-08-24T06:41:01;100636.72;;;22.37;49.43
64204;BME280;50520;49.768;8.636;2022-08-24T06:43:28;100638.75;;;22.35;49.55
64204;BME280;50520;49.768;8.636;2022-08-24T06:45:56;100643.38;;;22.33;49.66
64204;BME280;50520;49.768;8.636;2022-08-24T06:48:23;100639.91;;;22.32;49.73
64204;BME280;50520;49.768;8.636;2022-08-24T06:50:51;100644.19;;;22.33;49.60
64204;BME280;50520;49.768;8.636;2022-08-24T06:53:19;100644.09;;;22.35;49.69
64204;BME280;50520;49.768;8.636;2022-08-24T06:55:48;100657.41;;;22.35;49.73
64204;BME280;50520;49.768;8.636;2022-08-24T06:58:18;100648.72;;;22.33;49.97
64204;BME280;50520;49.768;8.636;2022-08-24T07:00:45;100650.22;;;22.35;50.13
64204;BME280;50520;49.768;8.636;2022-08-24T07:03:12;100653.06;;;22.34;49.98
64204;BME280;50520;49.768;8.636;2022-08-24T07:05:39;100662.19;;;22.39;50.04
64204;BME280;50520;49.768;8.636;2022-08-24T07:08:13;100653.22;;;22.40;50.28
64204;BME280;50520;49.768;8.636;2022-08-24T07:10:40;100652.72;;;22.37;50.32
64204;BME280;50520;49.768;8.636;2022-08-24T07:13:07;100657.88;;;22.38;50.37
64204;BME280;50520;49.768;8.636;2022-08-24T07:15:36;100663.19;;;22.38;50.35
64204;BME280;50520;49.768;8.636;2022-08-24T07:18:04;100658.88;;;22.37;50.52
64204;BME280;50520;49.768;8.636;2022-08-24T07:20:35;100655.69;;;22.42;50.52
64204;BME280;50520;49.768;8.636;2022-08-24T07:23:03;100658.53;;;22.40;50.74
64204;BME280;50520;49.768;8.636;2022-08-24T07:25:30;100655.69;;;22.42;50.51
64204;BME280;50520;49.768;8.636;2022-08-24T07:27:58;100655.03;;;22.40;50.65
64204;BME280;50520;49.768;8.636;2022-08-24T07:30:32;100659.00;;;22.44;50.63
64204;BME280;50520;49.768;8.636;2022-08-24T07:33:02;100653.50;;;22.45;50.75
64204;BME280;50520;49.768;8.636;2022-08-24T07:35:31;100664.81;;;22.48;50.62
64204;BME280;50520;49.768;8.636;2022-08-24T07:37:58;100656.81;;;22.48;50.79
64204;BME280;50520;49.768;8.636;2022-08-24T07:40:28;100663.66;;;22.50;50.54
64204;BME280;50520;49.768;8.636;2022-08-24T07:42:56;100659.31;;;22.49;50.80
64204;BME280;50520;49.768;8.636;2022-08-24T07:45:24;100661.63;;;22.52;50.51
64204;BME280;50520;49.768;8.636;2022-08-24T07:47:52;100651.81;;;22.53;50.51
64204;BME280;50520;49.768;8.636;2022-08-24T07:50:21;100661.44;;;22.54;50.56
64204;BME280;50520;49.768;8.636;2022-08-24T07:52:48;100660.44;;;22.55;50.50
64204;BME280;50520;49.768;8.636;2022-08-24T07:55:15;100662.13;;;22.56;50.56
64204;BME280;50520;49.768;8.636;2022-08-24T07:57:42;100665.78;;;22.55;50.54
64204;BME280;50520;49.768;8.636;2022-08-24T08:00:11;100669.94;;;22.57;50.70
64204;BME280;50520;49.768;8.636;2022-08-24T08:02:39;100676.06;;;22.58;50.77
64204;BME280;50520;49.768;8.636;2022-08-24T08:05:08;100670.56;;;22.59;50.62
64204;BME280;50520;49.768;8.636;2022-08-24T08:07:35;100677.56;;;22.60;50.63
64204;BME280;50520;49.768;8.636;2022-08-24T08:10:02;100675.06;;;22.59;50.48
64204;BME280;50520;49.768;8.636;2022-08-24T08:12:30;100680.22;;;22.60;50.62
64204;BME280;50520;49.768;8.636;2022-08-24T08:14:57;100680.91;;;22.63;50.70
64204;BME280;50520;49.768;8.636;2022-08-24T08:17:24;100681.06;;;22.61;50.82
64204;BME280;50520;49.768;8.636;2022-08-24T08:19:52;100679.88;;;22.64;50.76
64204;BME280;50520;49.768;8.636;2022-08-24T08:22:20;100680.91;;;22.63;50.79
64204;BME280;50520;49.768;8.636;2022-08-24T08:25:07;100687.03;;;22.63;50.86
64204;BME280;50520;49.768;8.636;2022-08-24T08:27:33;100680.72;;;22.64;50.71
64204;BME280;50520;49.768;8.636;2022-08-24T08:30:01;100679.88;;;22.64;50.71
64204;BME280;50520;49.768;8.636;2022-08-24T08:32:28;100686.03;;;22.64;51.00
64204;BME280;50520;49.768;8.636;2022-08-24T08:34:56;100680.53;;;22.66;50.89
64204;BME280;50520;49.768;8.636;2022-08-24T08:37:23;100683.19;;;22.66;50.84
64204;BME280;50520;49.768;8.636;2022-08-24T08:39:50;100682.22;;;22.67;51.23
64204;BME280;50520;49.768;8.636;2022-08-24T09:11:19;100672.50;;;22.74;51.07
64204;BME280;50520;49.768;8.636;2022-08-24T09:26:46;100669.47;;;22.77;51.20
64204;BME280;50520;49.768;8.636;2022-08-24T09:29:15;100670.28;;;22.77;51.60
64204;BME280;50520;49.768;8.636;2022-08-24T09:31:47;100666.81;;;22.77;51.27
64204;BME280;50520;49.768;8.636;2022-08-24T09:34:22;100664.97;;;22.77;51.51
64204;BME280;50520;49.768;8.636;2022-08-24T09:36:53;100659.63;;;22.77;51.44
64204;BME280;50520;49.768;8.636;2022-08-24T09:44:41;100656.97;;;22.77;51.56
64204;BME280;50520;49.768;8.636;2022-08-24T09:47:20;100660.66;;;22.76;51.74
64204;BME280;50520;49.768;8.636;2022-08-24T09:50:01;100652.47;;;22.78;51.88
64204;BME280;50520;49.768;8.636;2022-08-24T09:52:42;100655.31;;;22.76;52.06
64204;BME280;50520;49.768;8.636;2022-08-24T10:21:48;100636.44;;;22.86;51.84
64204;BME280;50520;49.768;8.636;2022-08-24T10:24:24;100621.25;;;22.87;52.33
64204;BME280;50520;49.768;8.636;2022-08-24T10:30:13;100636.25;;;22.88;52.30
64204;BME280;50520;49.768;8.636;2022-08-24T10:32:50;100636.69;;;22.91;51.76
64204;BME280;50520;49.768;8.636;2022-08-24T10:35:24;100626.88;;;22.92;51.93
64204;BME280;50520;49.768;8.636;2022-08-24T10:43:21;100618.69;;;22.93;52.31
64204;BME280;50520;49.768;8.636;2022-08-24T10:56:10;100623.31;;;23.00;52.08
64204;BME280;50520;49.768;8.636;2022-08-24T11:08:59;100619.75;;;23.07;51.87
64204;BME280;50520;49.768;8.636;2022-08-24T11:11:30;100621.22;;;23.10;51.86
64204;BME280;50520;49.768;8.636;2022-08-24T11:14:00;100612.91;;;23.13;51.75
64204;BME280;50520;49.768;8.636;2022-08-24T11:16:31;100618.06;;;23.15;51.92
64204;BME280;50520;49.768;8.636;2022-08-24T11:21:47;100621.00;;;23.20;51.77
64204;BME280;50520;49.768;8.636;2022-08-24T11:27:01;100613.50;;;23.23;51.36
64204;BME280;50520;49.768;8.636;2022-08-24T11:39:57;100615.59;;;23.28;51.32
64204;BME280;50520;49.768;8.636;2022-08-24T11:55:19;100599.97;;;23.40;51.17
64204;BME280;50520;49.768;8.636;2022-08-24T11:57:52;100596.66;;;23.38;50.92
64204;BME280;50520;49.768;8.636;2022-08-24T12:00:24;100601.34;;;23.36;50.90
64204;BME280;50520;49.768;8.636;2022-08-24T12:05:22;100592.06;;;23.46;50.53
64204;BME280;50520;49.768;8.636;2022-08-24T12:07:55;100591.81;;;23.41;50.44
64204;BME280;50520;49.768;8.636;2022-08-24T12:10:46;100584.91;;;23.47;49.87
64204;BME280;50520;49.768;8.636;2022-08-24T12:28:45;100580.66;;;23.53;49.69
64204;BME280;50520;49.768;8.636;2022-08-24T12:31:18;100589.78;;;23.58;49.53
64204;BME280;50520;49.768;8.636;2022-08-24T12:33:50;100583.34;;;23.53;50.22
64204;BME280;50520;49.768;8.636;2022-08-24T12:36:24;100580.47;;;23.54;50.47
64204;BME280;50520;49.768;8.636;2022-08-24T12:39:10;100582.97;;;23.56;50.46
64204;BME280;50520;49.768;8.636;2022-08-24T12:44:46;100584.63;;;23.57;50.33
64204;BME280;50520;49.768;8.636;2022-08-24T12:47:19;100584.97;;;23.54;50.71
64204;BME280;50520;49.768;8.636;2022-08-24T12:49:49;100580.91;;;23.58;50.27
64204;BME280;50520;49.768;8.636;2022-08-24T12:52:41;100569.63;;;23.56;50.44
64204;BME280;50520;49.768;8.636;2022-08-24T12:57:50;100563.00;;;23.67;50.07
64204;BME280;50520;49.768;8.636;2022-08-24T13:00:25;100573.38;;;23.61;50.10
64204;BME280;50520;49.768;8.636;2022-08-24T13:02:58;100565.56;;;23.60;49.60
64204;BME280;50520;49.768;8.636;2022-08-24T13:05:37;100558.19;;;23.62;49.60
64204;BME280;50520;49.768;8.636;2022-08-24T13:08:09;100566.66;;;23.66;49.78
64204;BME280;50520;49.768;8.636;2022-08-24T13:11:04;100557.38;;;23.61;49.98
64204;BME280;50520;49.768;8.636;2022-08-24T13:26:45;100548.94;;;23.43;50.62
64204;BME280;50520;49.768;8.636;2022-08-24T13:29:13;100545.78;;;23.39;50.82
64204;BME280;50520;49.768;8.636;2022-08-24T13:31:47;100552.41;;;23.43;50.23
64204;BME280;50520;49.768;8.636;2022-08-24T13:37:01;100545.16;;;23.37;50.45
64204;BME280;50520;49.768;8.636;2022-08-24T13:39:38;100548.47;;;23.39;50.20
64204;BME280;50520;49.768;8.636;2022-08-24T13:42:10;100533.19;;;23.33;50.72
64204;BME280;50520;49.768;8.636;2022-08-24T14:03:11;100529.31;;;23.36;51.17
64204;BME280;50520;49.768;8.636;2022-08-24T14:05:43;100524.81;;;23.36;50.35
64204;BME280;50520;49.768;8.636;2022-08-24T14:08:24;100523.34;;;23.34;50.30
64204;BME280;50520;49.768;8.636;2022-08-24T14:11:15;100514.69;;;23.32;50.65
64204;BME280;50520;49.768;8.636;2022-08-24T14:24:36;100512.50;;;23.35;50.88
64204;BME280;50520;49.768;8.636;2022-08-24T14:27:07;100513.88;;;23.31;51.66
64204;BME280;50520;49.768;8.636;2022-08-24T14:29:43;100516.34;;;23.33;51.30
64204;BME280;50520;49.768;8.636;2022-08-24T14:32:27;100514.69;;;23.32;51.10
64204;BME280;50520;49.768;8.636;2022-08-24T14:34:59;100507.72;;;23.31;51.32
64204;BME280;50520;49.768;8.636;2022-08-24T14:37:32;100516.53;;;23.31;51.36
64204;BME280;50520;49.768;8.636;2022-08-24T14:40:22;100513.69;;;23.33;50.01
64204;BME280;50520;49.768;8.636;2022-08-24T14:42:54;100507.72;;;23.31;49.86
64204;BME280;50520;49.768;8.636;2022-08-24T14:47:57;100490.69;;;23.32;50.85
64204;BME280;50520;49.768;8.636;2022-08-24T14:50:31;100490.53;;;23.33;51.21
64204;BME280;50520;49.768;8.636;2022-08-24T15:13:44;100479.00;;;23.33;51.09
64204;BME280;50520;49.768;8.636;2022-08-24T15:16:20;100485.19;;;23.33;51.25
64204;BME280;50520;49.768;8.636;2022-08-24T15:18:56;100483.72;;;23.31;51.55
64204;BME280;50520;49.768;8.636;2022-08-24T15:21:35;100486.38;;;23.31;50.81
64204;BME280;50520;49.768;8.636;2022-08-24T15:24:10;100477.91;;;23.27;50.73
64204;BME280;50520;49.768;8.636;2022-08-24T15:37:15;100470.63;;;23.36;50.00
64204;BME280;50520;49.768;8.636;2022-08-24T15:39:41;100475.31;;;23.34;50.76
64204;BME280;50520;49.768;8.636;2022-08-24T15:42:10;100479.47;;;23.36;50.76
64204;BME280;50520;49.768;8.636;2022-08-24T15:44:41;100479.47;;;23.36;50.77
64204;BME280;50520;49.768;8.636;2022-08-24T15:49:55;100481.47;;;23.34;50.59
64204;BME280;50520;49.768;8.636;2022-08-24T16:03:26;100488.47;;;23.35;50.81
64204;BME280;50520;49.768;8.636;2022-08-24T16:05:56;100487.66;;;23.35;50.30
64204;BME280;50520;49.768;8.636;2022-08-24T16:11:34;100486.47;;;23.37;50.40
64204;BME280;50520;49.768;8.636;2022-08-24T16:14:04;100486.47;;;23.37;50.16
64204;BME280;50520;49.768;8.636;2022-08-24T16:16:36;100483.63;;;23.39;50.50
64204;BME280;50520;49.768;8.636;2022-08-24T16:19:05;100482.75;;;23.38;50.59
64204;BME280;50520;49.768;8.636;2022-08-24T16:21:34;100479.75;;;23.41;50.58
64204;BME280;50520;49.768;8.636;2022-08-24T16:24:08;100479.28;;;23.38;50.54
64204;BME280;50520;49.768;8.636;2022-08-24T16:39:26;100489.38;;;23.42;50.80
64204;BME280;50520;49.768;8.636;2022-08-24T16:41:56;100483.44;;;23.40;51.46
64204;BME280;50520;49.768;8.636;2022-08-24T16:44:25;100489.75;;;23.39;50.88
64204;BME280;50520;49.768;8.636;2022-08-24T16:46:55;100487.09;;;23.39;50.48
64204;BME280;50520;49.768;8.636;2022-08-24T16:49:30;100480.09;;;23.38;49.65
64204;BME280;50520;49.768;8.636;2022-08-24T16:51:59;100481.94;;;23.38;49.48
64204;BME280;50520;49.768;8.636;2022-08-24T16:54:29;100485.91;;;23.42;49.76
64204;BME280;50520;49.768;8.636;2022-08-24T16:56:56;100480.38;;;23.43;50.33
64204;BME280;50520;49.768;8.636;2022-08-24T16:59:28;100488.38;;;23.43;50.79
64204;BME280;50520;49.768;8.636;2022-08-24T17:01:57;100485.72;;;23.43;50.79
64204;BME280;50520;49.768;8.636;2022-08-24T17:04:24;100483.44;;;23.40;50.59
64204;BME280;50520;49.768;8.636;2022-08-24T17:06:51;100480.19;;;23.45;50.19
64204;BME280;50520;49.768;8.636;2022-08-24T17:09:19;100477.25;;;23.40;49.75
64204;BME280;50520;49.768;8.636;2022-08-24T17:11:46;100472.09;;;23.38;50.12
64204;BME280;50520;49.768;8.636;2022-08-24T17:14:13;100474.22;;;23.43;49.83
64204;BME280;50520;49.768;8.636;2022-08-24T17:16:40;100477.53;;;23.45;50.18
64204;BME280;50520;49.768;8.636;2022-08-24T17:19:09;100478.38;;;23.45;50.70
64204;BME280;50520;49.768;8.636;2022-08-24T17:21:38;100475.69;;;23.45;51.78
64204;BME280;50520;49.768;8.636;2022-08-24T17:24:05;100474.41;;;23.41;50.57
64204;BME280;50520;49.768;8.636;2022-08-24T17:26:33;100480.56;;;23.42;50.61
64204;BME280;50520;49.768;8.636;2022-08-24T17:29:04;100483.69;;;23.45;50.76
64204;BME280;50520;49.768;8.636;2022-08-24T17:31:32;100482.66;;;23.46;51.34